createdAt,value
2018-12-29T00:00:05.913Z,41.98
2018-12-29T00:01:03.827Z,48.81
2018-12-29T00:02:03.138Z,44.06
2018-12-29T00:03:02.894Z,42.44
2018-12-29T00:04:02.838Z,44.45
2018-12-29T00:05:02.850Z,43.85
2018-12-29T00:06:03.591Z,48.6
2018-12-29T00:07:03.414Z,43.89
2018-12-29T00:08:03.720Z,46.44
2018-12-29T00:09:03.211Z,42.34
2018-12-29T00:10:03.281Z,39.98
2018-12-29T00:11:03.345Z,45.85
2018-12-29T00:12:02.935Z,45.85
2018-12-29T00:13:03.856Z,44.98
2018-12-29T00:14:03.296Z,44.66
2018-12-29T00:15:02.991Z,44.66
2018-12-29T00:16:03.661Z,41.49
2018-12-29T00:17:02.991Z,44.52
2018-12-29T00:18:03.201Z,46.69
2018-12-29T00:19:03.272Z,42.01
2018-12-29T00:20:02.882Z,46.4
2018-12-29T00:21:03.047Z,41.86
2018-12-29T00:22:02.923Z,42.81
2018-12-29T00:23:02.952Z,44.9
2018-12-29T00:24:03.099Z,43.6
2018-12-29T00:25:03.644Z,44.21
2018-12-29T00:26:02.789Z,42.9
2018-12-29T00:27:03.109Z,44.76
2018-12-29T00:28:03.372Z,42.65
2018-12-29T00:29:03.469Z,43.08
2018-12-29T00:30:03.244Z,48.53
2018-12-29T00:31:03.457Z,44.4
2018-12-29T00:32:03.011Z,41.86
2018-12-29T00:33:02.995Z,47.99
2018-12-29T00:34:03.361Z,47.15
2018-12-29T00:35:02.990Z,42.99
2018-12-29T00:36:02.824Z,40.92
2018-12-29T00:37:03.293Z,42.7
2018-12-29T00:38:03.634Z,43.87
2018-12-29T00:39:03.854Z,48.32
2018-12-29T00:40:03.563Z,43.78
2018-12-29T00:41:03.209Z,42.25
2018-12-29T00:42:03.327Z,47.65
2018-12-29T00:43:03.534Z,45.99
2018-12-29T00:44:03.050Z,46.95
2018-12-29T00:45:03.493Z,47.81
2018-12-29T00:46:03.336Z,47.81
2018-12-29T00:47:03.707Z,43.27
2018-12-29T00:48:03.229Z,48.62
2018-12-29T00:49:03.317Z,43.43
2018-12-29T00:50:03.760Z,46.54
2018-12-29T00:51:03.421Z,46.55
2018-12-29T00:52:03.434Z,52.04
2018-12-29T00:53:03.261Z,46.89
2018-12-29T00:54:02.918Z,47.2
2018-12-29T00:55:02.994Z,43.17
2018-12-29T00:56:02.870Z,46.24
2018-12-29T00:57:03.199Z,46.24
2018-12-29T00:58:02.869Z,46.97
2018-12-29T00:59:03.477Z,42.52
2018-12-29T01:00:03.309Z,42.52
2018-12-29T01:01:03.186Z,41.64
2018-12-29T01:02:03.367Z,45.41
2018-12-29T01:03:03.104Z,41.97
2018-12-29T01:04:03.013Z,42.45
2018-12-29T01:05:03.671Z,45.16
2018-12-29T01:06:02.744Z,40.7
2018-12-29T01:07:02.966Z,39.86
2018-12-29T01:08:03.450Z,46.66
2018-12-29T01:09:03.245Z,44.68
2018-12-29T01:10:03.125Z,41.61
2018-12-29T01:11:03.953Z,46.97
2018-12-29T01:12:02.838Z,42.37
2018-12-29T01:13:03.394Z,36.1
2018-12-29T01:14:02.702Z,49.12
2018-12-29T01:15:09.782Z,41.46
2018-12-29T01:16:03.016Z,46.02
2018-12-29T01:17:02.876Z,37.47
2018-12-29T01:18:03.851Z,43.59
2018-12-29T01:19:03.332Z,44.18
2018-12-29T01:20:02.924Z,43.11
2018-12-29T01:21:02.966Z,43.94
2018-12-29T01:22:02.940Z,41.84
2018-12-29T01:23:03.404Z,44.66
2018-12-29T01:24:03.290Z,40.9
2018-12-29T01:25:03.007Z,44.11
2018-12-29T01:26:03.122Z,44.91
2018-12-29T01:27:03.253Z,45.27
2018-12-29T01:28:02.831Z,40.08
2018-12-29T01:29:03.483Z,41.19
2018-12-29T01:30:04.180Z,39.25
2018-12-29T01:31:03.639Z,43.81
2018-12-29T01:32:03.511Z,37.84
2018-12-29T01:33:03.601Z,36.66
2018-12-29T01:34:03.212Z,38.33
2018-12-29T01:35:03.592Z,36.85
2018-12-29T01:36:03.795Z,41.66
2018-12-29T01:37:03.482Z,36.78
2018-12-29T01:38:03.262Z,36.78
2018-12-29T01:39:03.584Z,38.22
2018-12-29T01:40:03.303Z,41.15
2018-12-29T01:41:03.382Z,44.44
2018-12-29T01:42:02.915Z,46.26
2018-12-29T01:43:02.924Z,49.48
2018-12-29T01:44:03.297Z,49.99
2018-12-29T01:45:03.030Z,43.74
2018-12-29T01:46:02.840Z,53.8
2018-12-29T01:47:03.344Z,65.2
2018-12-29T01:48:03.840Z,50.21
2018-12-29T01:49:03.146Z,61.52
2018-12-29T01:50:03.687Z,55.21
2018-12-29T01:51:03.017Z,61.59
2018-12-29T01:52:02.696Z,66.2
2018-12-29T01:53:03.056Z,57.42
2018-12-29T01:54:03.807Z,56.24
2018-12-29T01:55:03.338Z,59.99
2018-12-29T01:56:02.964Z,60.24
2018-12-29T01:57:03.229Z,51.51
2018-12-29T01:58:03.712Z,58.92
2018-12-29T01:59:03.468Z,63.7
2018-12-29T02:00:03.794Z,63.37
2018-12-29T02:01:03.127Z,61.55
2018-12-29T02:02:03.137Z,65.59
2018-12-29T02:03:02.938Z,72.09
2018-12-29T02:04:03.387Z,64.89
2018-12-29T02:05:03.870Z,74.05
2018-12-29T02:06:02.897Z,78.66
2018-12-29T02:07:03.636Z,57.39
2018-12-29T02:08:03.631Z,66.35
2018-12-29T02:09:03.599Z,73.48
2018-12-29T02:10:03.438Z,74.73
2018-12-29T02:11:03.481Z,61.14
2018-12-29T02:12:03.408Z,71.37
2018-12-29T02:13:02.754Z,76.6
2018-12-29T02:14:03.255Z,71.15
2018-12-29T02:15:02.638Z,62.5
2018-12-29T02:16:03.020Z,64.84
2018-12-29T02:17:02.760Z,76.71
2018-12-29T02:18:03.615Z,76.71
2018-12-29T02:19:03.251Z,68.79
2018-12-29T02:20:03.343Z,69.71
2018-12-29T02:21:03.739Z,67.13
2018-12-29T02:22:03.343Z,68.82
2018-12-29T02:23:02.907Z,64.22
2018-12-29T02:24:03.147Z,74.38
2018-12-29T02:25:03.324Z,67.19
2018-12-29T02:26:02.950Z,78.1
2018-12-29T02:27:03.165Z,70.35
2018-12-29T02:28:03.122Z,65.43
2018-12-29T02:29:02.737Z,78.48
2018-12-29T02:30:03.613Z,75.76
2018-12-29T02:31:03.028Z,81.2
2018-12-29T02:32:02.939Z,67.47
2018-12-29T02:33:03.080Z,71.81
2018-12-29T02:34:03.055Z,78.25
2018-12-29T02:35:03.227Z,111.94
2018-12-29T02:36:03.463Z,91.08
2018-12-29T02:37:03.570Z,93.51
2018-12-29T02:38:03.319Z,81.68
2018-12-29T02:39:03.532Z,96.34
2018-12-29T02:40:03.333Z,69.37
2018-12-29T02:41:03.003Z,88.94
2018-12-29T02:42:03.165Z,83.44
2018-12-29T02:43:03.431Z,91.19
2018-12-29T02:44:02.642Z,90.28
2018-12-29T02:45:03.576Z,104.01
2018-12-29T02:46:03.213Z,90.9
2018-12-29T02:47:03.564Z,98.02
2018-12-29T02:48:03.441Z,91.14
2018-12-29T02:49:02.992Z,79.89
2018-12-29T02:50:03.462Z,82.05
2018-12-29T02:51:03.483Z,70.99
2018-12-29T02:52:03.448Z,66.22
2018-12-29T02:53:02.951Z,62.21
2018-12-29T02:54:03.204Z,70.97
2018-12-29T02:55:03.124Z,66.85
2018-12-29T02:56:02.885Z,67.71
2018-12-29T02:57:03.665Z,73.11
2018-12-29T02:58:03.395Z,77.35
2018-12-29T02:59:03.040Z,87.95
2018-12-29T03:00:03.103Z,85.05
2018-12-29T03:01:03.229Z,78.74
2018-12-29T03:02:03.439Z,83.36
2018-12-29T03:03:03.482Z,83.36
2018-12-29T03:04:03.082Z,77.79
2018-12-29T03:05:03.054Z,71.17
2018-12-29T03:06:03.313Z,70.1
2018-12-29T03:07:03.207Z,81.94
2018-12-29T03:08:03.136Z,80.52
2018-12-29T03:09:03.762Z,77.19
2018-12-29T03:10:03.477Z,76.41
2018-12-29T03:11:03.749Z,75.66
2018-12-29T03:12:02.688Z,78.97
2018-12-29T03:13:03.339Z,81.54
2018-12-29T03:14:03.216Z,85.36
2018-12-29T03:15:03.228Z,75.19
2018-12-29T03:16:03.612Z,73.39
2018-12-29T03:17:03.148Z,63.74
2018-12-29T03:18:02.651Z,78.13
2018-12-29T03:19:02.940Z,75.79
2018-12-29T03:20:02.921Z,70.74
2018-12-29T03:21:03.386Z,77.79
2018-12-29T03:22:03.188Z,73.65
2018-12-29T03:23:02.633Z,69.19
2018-12-29T03:24:03.390Z,84.2
2018-12-29T03:25:03.271Z,82.44
2018-12-29T03:26:03.317Z,69.92
2018-12-29T03:27:03.684Z,75.04
2018-12-29T03:28:03.631Z,76.12
2018-12-29T03:29:02.877Z,82.96
2018-12-29T03:30:02.947Z,77.99
2018-12-29T03:31:02.882Z,78.29
2018-12-29T03:32:03.729Z,82.57
2018-12-29T03:33:02.738Z,73.85
2018-12-29T03:34:03.075Z,86.92
2018-12-29T03:35:03.528Z,79.89
2018-12-29T03:36:02.784Z,69.71
2018-12-29T03:37:02.610Z,81.02
2018-12-29T03:38:03.910Z,76.22
2018-12-29T03:39:03.881Z,81.84
2018-12-29T03:40:03.679Z,62.25
2018-12-29T03:41:03.694Z,83.86
2018-12-29T03:42:02.939Z,75.01
2018-12-29T03:43:03.099Z,68.05
2018-12-29T03:44:03.065Z,61.21
2018-12-29T03:45:03.616Z,56.94
2018-12-29T03:46:02.922Z,64.14
2018-12-29T03:47:03.381Z,64.14
2018-12-29T03:48:03.222Z,62.61
2018-12-29T03:49:03.258Z,64.77
2018-12-29T03:50:02.832Z,64.77
2018-12-29T03:51:02.755Z,62.04
2018-12-29T03:52:02.968Z,55.04
2018-12-29T03:53:03.353Z,55.04
2018-12-29T03:54:03.453Z,56
2018-12-29T03:55:04.039Z,58.69
2018-12-29T03:56:02.841Z,62.17
2018-12-29T03:57:03.666Z,65.79
2018-12-29T03:58:03.744Z,55.76
2018-12-29T03:59:03.276Z,70.79
2018-12-29T04:00:03.753Z,62.23
2018-12-29T04:01:03.270Z,60.63
2018-12-29T04:02:03.388Z,60.38
2018-12-29T04:03:03.604Z,60.38
2018-12-29T04:04:03.746Z,61.58
2018-12-29T04:05:03.751Z,63.88
2018-12-29T04:06:03.429Z,65.6
2018-12-29T04:07:03.272Z,66.41
2018-12-29T04:08:03.228Z,66.82
2018-12-29T04:09:03.224Z,65.29
2018-12-29T04:10:02.831Z,60.96
2018-12-29T04:11:02.957Z,67.25
2018-12-29T04:12:03.512Z,63.55
2018-12-29T04:13:03.529Z,71.71
2018-12-29T04:14:03.000Z,69.85
2018-12-29T04:15:03.377Z,70.71
2018-12-29T04:16:03.499Z,60.55
2018-12-29T04:17:03.610Z,72.48
2018-12-29T04:18:02.812Z,61.11
2018-12-29T04:19:03.227Z,62.52
2018-12-29T04:20:03.696Z,60.43
2018-12-29T04:21:03.016Z,62.16
2018-12-29T04:22:02.974Z,70.32
2018-12-29T04:23:03.521Z,67.18
2018-12-29T04:24:02.615Z,63.17
2018-12-29T04:25:02.857Z,59.54
2018-12-29T04:26:03.134Z,65.71
2018-12-29T04:27:03.426Z,58.38
2018-12-29T04:28:03.516Z,59.05
2018-12-29T04:29:03.115Z,68.35
2018-12-29T04:30:03.571Z,60.39
2018-12-29T04:31:02.966Z,60.71
2018-12-29T04:32:02.853Z,67.04
2018-12-29T04:33:03.580Z,53.34
2018-12-29T04:34:03.383Z,65.41
2018-12-29T04:35:03.727Z,63.95
2018-12-29T04:36:02.721Z,73.24
2018-12-29T04:37:02.675Z,58.31
2018-12-29T04:38:02.965Z,79.44
2018-12-29T04:39:02.733Z,79.44
2018-12-29T04:40:03.320Z,75.98
2018-12-29T04:41:02.949Z,67.43
2018-12-29T04:42:03.165Z,67.97
2018-12-29T04:43:03.647Z,71.79
2018-12-29T04:44:03.827Z,71.72
2018-12-29T04:45:03.736Z,70.92
2018-12-29T04:46:05.299Z,70.92
2018-12-29T04:47:03.572Z,0
2018-12-29T04:48:02.898Z,0
2018-12-29T04:49:03.477Z,0
2018-12-29T04:50:03.678Z,0
2018-12-29T04:51:03.344Z,0
2018-12-29T04:52:03.119Z,0
2018-12-29T04:53:02.688Z,0
2018-12-29T04:54:03.203Z,0
2018-12-29T04:55:03.706Z,0
2018-12-29T04:56:02.781Z,0
2018-12-29T04:57:03.494Z,0
2018-12-29T04:58:03.103Z,0
2018-12-29T04:59:03.683Z,0
2018-12-29T05:00:03.422Z,0
2018-12-29T05:01:03.617Z,0
2018-12-29T05:02:03.423Z,0
2018-12-29T05:03:02.995Z,0
2018-12-29T05:04:03.665Z,0
2018-12-29T05:05:03.723Z,0
2018-12-29T05:06:03.503Z,0
2018-12-29T05:07:03.221Z,0
2018-12-29T05:08:02.850Z,0
2018-12-29T05:09:03.594Z,0
2018-12-29T05:10:03.271Z,0
2018-12-29T05:11:03.443Z,0
2018-12-29T05:12:02.843Z,0
2018-12-29T05:13:03.239Z,0
2018-12-29T05:14:03.400Z,0
2018-12-29T05:15:03.643Z,0
2018-12-29T05:16:03.218Z,0
2018-12-29T05:17:03.139Z,0
2018-12-29T05:18:03.626Z,0
2018-12-29T05:19:03.812Z,0
2018-12-29T05:20:02.898Z,0
2018-12-29T05:21:03.568Z,0
2018-12-29T05:22:02.840Z,0
2018-12-29T05:23:03.208Z,0
2018-12-29T05:24:02.917Z,0
2018-12-29T05:25:02.986Z,0
2018-12-29T05:26:03.692Z,0
2018-12-29T05:27:02.862Z,0
2018-12-29T05:28:03.474Z,0
2018-12-29T05:29:03.223Z,0
2018-12-29T05:30:03.471Z,0
2018-12-29T05:31:03.697Z,0
2018-12-29T05:32:03.026Z,0
2018-12-29T05:33:02.922Z,0
2018-12-29T05:34:03.917Z,0
2018-12-29T05:35:03.307Z,0
2018-12-29T05:36:03.637Z,0
2018-12-29T05:37:03.032Z,0
2018-12-29T05:38:03.745Z,0
2018-12-29T05:39:02.804Z,0
2018-12-29T05:40:03.023Z,0
2018-12-29T05:41:03.832Z,0
2018-12-29T05:42:03.278Z,0
2018-12-29T05:43:03.030Z,0
2018-12-29T05:44:03.232Z,0
2018-12-29T05:45:03.729Z,0
2018-12-29T05:46:03.117Z,0
2018-12-29T05:47:03.367Z,0
2018-12-29T05:48:02.621Z,0
2018-12-29T05:49:03.699Z,0
2018-12-29T05:50:03.037Z,0
2018-12-29T05:51:02.843Z,0
2018-12-29T05:52:03.465Z,0
2018-12-29T05:53:03.686Z,0
2018-12-29T05:54:03.687Z,0
2018-12-29T05:55:03.481Z,0
2018-12-29T05:56:02.996Z,0
2018-12-29T05:57:03.136Z,0
2018-12-29T05:58:03.472Z,0
2018-12-29T05:59:02.889Z,0
2018-12-29T06:00:02.883Z,0
2018-12-29T06:01:03.247Z,0
2018-12-29T06:02:03.669Z,0
2018-12-29T06:03:03.605Z,0
2018-12-29T06:04:02.819Z,0
2018-12-29T06:05:03.947Z,0
2018-12-29T06:06:03.477Z,0
2018-12-29T06:07:03.544Z,0
2018-12-29T06:08:03.137Z,0
2018-12-29T06:09:03.231Z,0
2018-12-29T06:10:02.908Z,0
2018-12-29T06:11:02.728Z,0
2018-12-29T06:12:02.659Z,0
2018-12-29T06:13:03.681Z,0
2018-12-29T06:14:03.048Z,0
2018-12-29T06:15:03.069Z,0
2018-12-29T06:16:02.987Z,0
2018-12-29T06:17:02.718Z,0
2018-12-29T06:18:03.103Z,0
2018-12-29T06:19:02.745Z,0
2018-12-29T06:20:03.725Z,0
2018-12-29T06:21:02.911Z,0
2018-12-29T06:22:02.880Z,0
2018-12-29T06:23:02.797Z,0
2018-12-29T06:24:03.118Z,0
2018-12-29T06:25:02.808Z,0
2018-12-29T06:26:03.073Z,0
2018-12-29T06:27:03.283Z,0
2018-12-29T06:28:03.443Z,0
2018-12-29T06:29:02.941Z,0
2018-12-29T06:30:03.179Z,0
2018-12-29T06:31:03.403Z,0
2018-12-29T06:32:02.894Z,0
2018-12-29T06:33:03.770Z,0
2018-12-29T06:34:03.611Z,0
2018-12-29T06:35:02.978Z,0
2018-12-29T06:36:02.869Z,0
2018-12-29T06:37:03.355Z,0
2018-12-29T06:38:03.193Z,0
2018-12-29T06:39:02.802Z,0
2018-12-29T06:40:02.727Z,0
2018-12-29T06:41:03.113Z,0
2018-12-29T06:42:02.581Z,0
2018-12-29T06:43:02.778Z,0
2018-12-29T06:44:03.740Z,0
2018-12-29T06:45:03.322Z,0
2018-12-29T06:46:02.986Z,0
2018-12-29T06:47:03.483Z,0
2018-12-29T06:48:03.561Z,0
2018-12-29T06:49:03.550Z,0
2018-12-29T06:50:03.198Z,0
2018-12-29T06:51:03.204Z,0
2018-12-29T06:52:03.403Z,0
2018-12-29T06:53:02.836Z,0
2018-12-29T06:54:03.544Z,0
2018-12-29T06:55:03.109Z,0
2018-12-29T06:56:03.579Z,0
2018-12-29T06:57:03.626Z,0
2018-12-29T06:58:02.821Z,0
2018-12-29T06:59:03.290Z,0
2018-12-29T07:00:03.052Z,0
2018-12-29T07:01:02.794Z,0
2018-12-29T07:02:03.661Z,0
2018-12-29T07:03:03.717Z,0
2018-12-29T07:04:03.027Z,0
2018-12-29T07:05:03.674Z,0
2018-12-29T07:06:02.856Z,0
2018-12-29T07:07:02.984Z,0
2018-12-29T07:08:03.470Z,0
2018-12-29T07:09:02.803Z,0
2018-12-29T07:10:03.385Z,0
2018-12-29T07:11:02.883Z,0
2018-12-29T07:12:04.645Z,0
2018-12-29T07:13:03.270Z,0
2018-12-29T07:14:03.338Z,0
2018-12-29T07:15:02.818Z,0
2018-12-29T07:16:03.243Z,0
2018-12-29T07:17:03.300Z,0
2018-12-29T07:18:03.235Z,0
2018-12-29T07:19:03.584Z,0
2018-12-29T07:20:03.066Z,0
2018-12-29T07:21:03.147Z,0
2018-12-29T07:22:03.232Z,0
2018-12-29T07:23:03.192Z,0
2018-12-29T07:24:03.405Z,0
2018-12-29T07:25:03.254Z,0
2018-12-29T07:26:03.152Z,0
2018-12-29T07:27:03.330Z,0
2018-12-29T07:28:03.195Z,0
2018-12-29T07:29:04.170Z,0
2018-12-29T07:30:03.331Z,0
2018-12-29T07:31:03.045Z,0
2018-12-29T07:32:03.687Z,0
2018-12-29T07:33:03.487Z,0
2018-12-29T07:34:03.766Z,0
2018-12-29T07:35:02.897Z,0
2018-12-29T07:36:03.448Z,0
2018-12-29T07:37:03.143Z,0
2018-12-29T07:38:03.042Z,0
2018-12-29T07:39:03.111Z,0
2018-12-29T07:40:03.424Z,0
2018-12-29T07:41:03.256Z,0
2018-12-29T07:42:03.096Z,0
2018-12-29T07:43:02.855Z,0
2018-12-29T07:44:03.360Z,0
2018-12-29T07:45:03.229Z,0
2018-12-29T07:46:02.840Z,0
2018-12-29T07:47:02.874Z,0
2018-12-29T07:48:03.655Z,0
2018-12-29T07:49:02.970Z,0
2018-12-29T07:50:03.203Z,0
2018-12-29T07:51:03.615Z,0
2018-12-29T07:52:03.496Z,0
2018-12-29T07:53:03.163Z,0
2018-12-29T07:54:02.931Z,0
2018-12-29T07:55:03.550Z,0
2018-12-29T07:56:03.196Z,0
2018-12-29T07:57:03.106Z,0
2018-12-29T07:58:03.504Z,0
2018-12-29T07:59:02.736Z,0
2018-12-29T08:00:03.161Z,0
2018-12-29T08:01:03.678Z,0
2018-12-29T08:02:03.499Z,0
2018-12-29T08:03:03.005Z,0
2018-12-29T08:04:02.885Z,0
2018-12-29T08:05:03.427Z,0
2018-12-29T08:06:02.974Z,0
2018-12-29T08:07:02.703Z,0
2018-12-29T08:08:03.432Z,0
2018-12-29T08:09:03.627Z,0
2018-12-29T08:10:02.673Z,0
2018-12-29T08:11:03.558Z,0
2018-12-29T08:12:03.383Z,0
2018-12-29T08:13:03.117Z,0
2018-12-29T08:14:03.617Z,0
2018-12-29T08:15:02.740Z,0
2018-12-29T08:16:02.692Z,0
2018-12-29T08:17:03.654Z,0
2018-12-29T08:18:03.309Z,0
2018-12-29T08:19:03.395Z,0
2018-12-29T08:20:03.079Z,0
2018-12-29T08:21:03.139Z,0
2018-12-29T08:22:03.649Z,0
2018-12-29T08:23:03.272Z,0
2018-12-29T08:24:03.050Z,0
2018-12-29T08:25:02.950Z,0
2018-12-29T08:26:02.851Z,0
2018-12-29T08:27:03.366Z,0
2018-12-29T08:28:03.038Z,0
2018-12-29T08:29:02.631Z,0
2018-12-29T08:30:03.779Z,0
2018-12-29T08:31:03.086Z,0
2018-12-29T08:32:03.498Z,0
2018-12-29T08:33:03.403Z,0
2018-12-29T08:34:02.862Z,0
2018-12-29T08:35:03.415Z,0
2018-12-29T08:36:03.565Z,0
2018-12-29T08:37:03.069Z,0
2018-12-29T08:38:03.584Z,0
2018-12-29T08:39:03.491Z,0
2018-12-29T08:40:03.347Z,0
2018-12-29T08:41:02.900Z,0
2018-12-29T08:42:03.773Z,0
2018-12-29T08:43:03.179Z,0
2018-12-29T08:44:03.120Z,0
2018-12-29T08:45:03.790Z,0
2018-12-29T08:46:03.698Z,0
2018-12-29T08:47:04.549Z,0
2018-12-29T08:48:03.717Z,0
2018-12-29T08:49:03.476Z,0
2018-12-29T08:50:03.831Z,0
2018-12-29T08:51:03.673Z,0
2018-12-29T08:52:02.777Z,0
2018-12-29T08:53:02.968Z,0
2018-12-29T08:54:02.581Z,0
2018-12-29T08:55:03.288Z,0
2018-12-29T08:56:03.846Z,0
2018-12-29T08:57:03.145Z,0
2018-12-29T08:58:03.022Z,0
2018-12-29T08:59:03.008Z,0
2018-12-29T09:00:03.900Z,0
2018-12-29T09:01:02.914Z,0
2018-12-29T09:02:03.185Z,0
2018-12-29T09:03:03.223Z,0
2018-12-29T09:04:02.956Z,0
2018-12-29T09:05:03.732Z,0
2018-12-29T09:06:02.760Z,0
2018-12-29T09:07:03.567Z,0
2018-12-29T09:08:03.009Z,0
2018-12-29T09:09:03.515Z,0
2018-12-29T09:10:03.818Z,0
2018-12-29T09:11:03.047Z,0
2018-12-29T09:12:03.035Z,0
2018-12-29T09:13:03.471Z,0
2018-12-29T09:14:03.581Z,0
2018-12-29T09:15:02.912Z,0
2018-12-29T09:16:03.379Z,0
2018-12-29T09:17:03.053Z,0
2018-12-29T09:18:03.538Z,0
2018-12-29T09:19:02.902Z,0
2018-12-29T09:20:03.478Z,0
2018-12-29T09:21:03.043Z,0
2018-12-29T09:22:03.657Z,0
2018-12-29T09:23:03.562Z,0
2018-12-29T09:24:02.822Z,0
2018-12-29T09:25:03.519Z,0
2018-12-29T09:26:02.922Z,0
2018-12-29T09:27:03.136Z,0
2018-12-29T09:28:03.418Z,0
2018-12-29T09:29:03.394Z,0
2018-12-29T09:30:03.437Z,0
2018-12-29T09:31:03.075Z,0
2018-12-29T09:32:03.448Z,0
2018-12-29T09:33:03.311Z,0
2018-12-29T09:34:03.374Z,0
2018-12-29T09:35:03.562Z,0
2018-12-29T09:36:02.893Z,0
2018-12-29T09:37:03.186Z,0
2018-12-29T09:38:03.533Z,0
2018-12-29T09:39:03.796Z,0
2018-12-29T09:40:03.880Z,0
2018-12-29T09:41:03.006Z,0
2018-12-29T09:42:03.541Z,0
2018-12-29T09:43:03.120Z,0
2018-12-29T09:44:03.068Z,0
2018-12-29T09:45:04.280Z,0
2018-12-29T09:46:03.162Z,0
2018-12-29T09:47:03.581Z,0
2018-12-29T09:48:03.403Z,0
2018-12-29T09:49:02.944Z,0
2018-12-29T09:50:03.239Z,0
2018-12-29T09:51:03.532Z,0
2018-12-29T09:52:03.074Z,0
2018-12-29T09:53:03.655Z,0
2018-12-29T09:54:03.257Z,0
2018-12-29T09:55:02.908Z,0
2018-12-29T09:56:02.934Z,0
2018-12-29T09:57:03.302Z,0
2018-12-29T09:58:02.987Z,0
2018-12-29T09:59:03.450Z,0
2018-12-29T10:00:03.704Z,0
2018-12-29T10:01:03.222Z,0
2018-12-29T10:02:02.811Z,0
2018-12-29T10:03:03.712Z,0
2018-12-29T10:04:03.326Z,0
2018-12-29T10:05:03.021Z,0
2018-12-29T10:06:03.728Z,0
2018-12-29T10:07:03.253Z,0
2018-12-29T10:08:03.416Z,0
2018-12-29T10:09:03.644Z,0
2018-12-29T10:10:03.069Z,0
2018-12-29T10:11:03.773Z,0
2018-12-29T10:12:03.354Z,0
2018-12-29T10:13:03.297Z,0
2018-12-29T10:14:02.827Z,0
2018-12-29T10:15:03.752Z,0
2018-12-29T10:16:03.348Z,0
2018-12-29T10:17:03.813Z,0
2018-12-29T10:18:03.596Z,0
2018-12-29T10:19:03.530Z,0
2018-12-29T10:20:02.852Z,0
2018-12-29T10:21:03.324Z,0
2018-12-29T10:22:03.075Z,0
2018-12-29T10:23:03.200Z,0
2018-12-29T10:24:03.447Z,0
2018-12-29T10:25:03.579Z,0
2018-12-29T10:26:03.284Z,0
2018-12-29T10:27:02.932Z,0
2018-12-29T10:28:03.321Z,0
2018-12-29T10:29:03.082Z,0
2018-12-29T10:30:03.494Z,0
2018-12-29T10:31:03.482Z,0
2018-12-29T10:32:03.207Z,0
2018-12-29T10:33:02.817Z,0
2018-12-29T10:34:03.164Z,0
2018-12-29T10:35:03.004Z,0
2018-12-29T10:36:03.364Z,0
2018-12-29T10:37:03.412Z,0
2018-12-29T10:38:02.754Z,0
2018-12-29T10:39:03.319Z,0
2018-12-29T10:40:03.005Z,0
2018-12-29T10:41:03.298Z,0
2018-12-29T10:42:03.384Z,0
2018-12-29T10:43:03.348Z,0
2018-12-29T10:44:03.019Z,0
2018-12-29T10:45:03.022Z,0
2018-12-29T10:46:03.409Z,0
2018-12-29T10:47:03.080Z,0
2018-12-29T10:48:02.978Z,0
2018-12-29T10:49:03.637Z,0
2018-12-29T10:50:03.863Z,0
2018-12-29T10:51:03.323Z,0
2018-12-29T10:52:03.663Z,0
2018-12-29T10:53:03.687Z,0
2018-12-29T10:54:03.146Z,0
2018-12-29T10:55:03.360Z,0
2018-12-29T10:56:03.237Z,0
2018-12-29T10:57:03.697Z,0
2018-12-29T10:58:03.372Z,0
2018-12-29T10:59:03.872Z,0
2018-12-29T11:00:03.749Z,0
2018-12-29T11:01:02.968Z,0
2018-12-29T11:02:03.681Z,0
2018-12-29T11:03:03.238Z,0
2018-12-29T11:04:03.000Z,0
2018-12-29T11:05:02.816Z,0
2018-12-29T11:06:03.483Z,0
2018-12-29T11:07:03.119Z,0
2018-12-29T11:08:03.097Z,0
2018-12-29T11:09:03.704Z,0
2018-12-29T11:10:03.296Z,0
2018-12-29T11:11:03.552Z,0
2018-12-29T11:12:03.262Z,0
2018-12-29T11:13:03.225Z,0
2018-12-29T11:14:02.772Z,0
2018-12-29T11:15:03.443Z,0
2018-12-29T11:16:03.013Z,0
2018-12-29T11:17:03.703Z,0
2018-12-29T11:18:03.076Z,0
2018-12-29T11:19:03.787Z,0
2018-12-29T11:20:03.420Z,0
2018-12-29T11:21:02.991Z,0
2018-12-29T11:22:03.157Z,0
2018-12-29T11:23:03.229Z,0
2018-12-29T11:24:03.434Z,0
2018-12-29T11:25:03.596Z,0
2018-12-29T11:26:03.471Z,0
2018-12-29T11:27:03.667Z,0
2018-12-29T11:28:02.602Z,0
2018-12-29T11:29:03.513Z,0
2018-12-29T11:30:03.606Z,0
2018-12-29T11:31:02.696Z,0
2018-12-29T11:32:03.299Z,0
2018-12-29T11:33:03.112Z,0
2018-12-29T11:34:03.794Z,0
2018-12-29T11:35:03.724Z,0
2018-12-29T11:36:02.987Z,0
2018-12-29T11:37:03.004Z,0
2018-12-29T11:38:03.425Z,0
2018-12-29T11:39:02.800Z,0
2018-12-29T11:40:02.911Z,0
2018-12-29T11:41:03.400Z,0
2018-12-29T11:42:03.062Z,0
2018-12-29T11:43:03.376Z,0
2018-12-29T11:44:02.962Z,0
2018-12-29T11:45:03.294Z,0
2018-12-29T11:46:03.476Z,0
2018-12-29T11:47:03.028Z,0
2018-12-29T11:48:03.103Z,0
2018-12-29T11:49:03.387Z,0
2018-12-29T11:50:03.780Z,0
2018-12-29T11:51:02.916Z,0
2018-12-29T11:52:03.062Z,0
2018-12-29T11:53:03.577Z,0
2018-12-29T11:54:02.745Z,0
2018-12-29T11:55:03.060Z,0
2018-12-29T11:56:02.777Z,0
2018-12-29T11:57:04.164Z,0
2018-12-29T11:58:03.405Z,0
2018-12-29T11:59:03.129Z,0
2018-12-29T12:00:03.643Z,0
2018-12-29T12:01:02.925Z,0
2018-12-29T12:02:03.166Z,0
2018-12-29T12:03:02.901Z,0
2018-12-29T12:04:02.826Z,0
2018-12-29T12:05:03.830Z,0
2018-12-29T12:06:03.775Z,0
2018-12-29T12:07:02.982Z,0
2018-12-29T12:08:03.538Z,0
2018-12-29T12:09:03.374Z,0
2018-12-29T12:10:03.512Z,0
2018-12-29T12:11:03.303Z,0
2018-12-29T12:12:03.623Z,0
2018-12-29T12:13:02.655Z,0
2018-12-29T12:14:03.581Z,0
2018-12-29T12:15:03.273Z,0
2018-12-29T12:16:03.608Z,0
2018-12-29T12:17:02.838Z,0
2018-12-29T12:18:03.470Z,0
2018-12-29T12:19:02.917Z,0
2018-12-29T12:20:03.665Z,0
2018-12-29T12:21:03.318Z,0
2018-12-29T12:22:02.739Z,0
2018-12-29T12:23:03.502Z,0
2018-12-29T12:24:02.975Z,0
2018-12-29T12:25:03.696Z,0
2018-12-29T12:26:02.800Z,0
2018-12-29T12:27:02.935Z,0
2018-12-29T12:28:03.771Z,0
2018-12-29T12:29:03.352Z,0
2018-12-29T12:30:03.331Z,0
2018-12-29T12:31:03.523Z,0
2018-12-29T12:32:03.337Z,0
2018-12-29T12:33:03.418Z,0
2018-12-29T12:34:02.601Z,0
2018-12-29T12:35:03.695Z,0
2018-12-29T12:36:03.750Z,0
2018-12-29T12:37:02.882Z,0
2018-12-29T12:38:03.216Z,0
2018-12-29T12:39:02.953Z,0
2018-12-29T12:40:03.686Z,0
2018-12-29T12:41:03.495Z,0
2018-12-29T12:42:03.439Z,0
2018-12-29T12:43:03.353Z,0
2018-12-29T12:44:02.812Z,0
2018-12-29T12:45:02.764Z,0
2018-12-29T12:46:03.037Z,0
2018-12-29T12:47:03.066Z,0
2018-12-29T12:48:05.067Z,0
2018-12-29T12:49:03.288Z,0
2018-12-29T12:50:03.511Z,0
2018-12-29T12:51:03.474Z,0
2018-12-29T12:52:03.259Z,0
2018-12-29T12:53:03.218Z,0
2018-12-29T12:54:03.147Z,0
2018-12-29T12:55:02.850Z,0
2018-12-29T12:56:03.297Z,0
2018-12-29T12:57:02.996Z,0
2018-12-29T12:58:03.157Z,0
2018-12-29T12:59:02.685Z,0
2018-12-29T13:00:03.466Z,0
2018-12-29T13:01:03.528Z,0
2018-12-29T13:02:03.041Z,0
2018-12-29T13:03:02.947Z,0
2018-12-29T13:04:02.668Z,0
2018-12-29T13:05:03.848Z,0
2018-12-29T13:06:03.183Z,0
2018-12-29T13:07:03.414Z,0
2018-12-29T13:08:03.034Z,0
2018-12-29T13:09:03.241Z,0
2018-12-29T13:10:03.692Z,0
2018-12-29T13:11:03.089Z,0
2018-12-29T13:12:02.792Z,0
2018-12-29T13:13:03.113Z,0
2018-12-29T13:14:03.277Z,0
2018-12-29T13:15:03.429Z,0
2018-12-29T13:16:03.667Z,0
2018-12-29T13:17:03.638Z,0
2018-12-29T13:18:03.755Z,0
2018-12-29T13:19:03.229Z,0
2018-12-29T13:20:05.037Z,0
2018-12-29T13:21:03.644Z,0
2018-12-29T13:22:03.394Z,0
2018-12-29T13:23:02.907Z,0
2018-12-29T13:24:03.729Z,0
2018-12-29T13:25:03.014Z,0
2018-12-29T13:26:03.494Z,0
2018-12-29T13:27:03.053Z,0
2018-12-29T13:28:03.170Z,0
2018-12-29T13:29:03.559Z,0
2018-12-29T13:30:03.659Z,0
2018-12-29T13:31:03.689Z,0
2018-12-29T13:32:03.030Z,0
2018-12-29T13:33:03.477Z,0
2018-12-29T13:34:03.726Z,0
2018-12-29T13:35:03.308Z,0
2018-12-29T13:36:03.461Z,0
2018-12-29T13:37:03.400Z,0
2018-12-29T13:38:03.702Z,0
2018-12-29T13:39:03.798Z,0
2018-12-29T13:40:03.098Z,0
2018-12-29T13:41:03.059Z,0
2018-12-29T13:42:03.742Z,0
2018-12-29T13:43:02.994Z,0
2018-12-29T13:44:03.471Z,0
2018-12-29T13:45:03.099Z,0
2018-12-29T13:46:06.354Z,0
2018-12-29T13:47:03.497Z,0
2018-12-29T13:48:02.813Z,0
2018-12-29T13:49:03.846Z,0
2018-12-29T13:50:04.345Z,0
2018-12-29T13:51:03.849Z,0
2018-12-29T13:52:03.653Z,0
2018-12-29T13:53:03.798Z,0
2018-12-29T13:54:03.110Z,0
2018-12-29T13:55:03.681Z,0
2018-12-29T13:56:03.777Z,0
2018-12-29T13:57:03.565Z,0
2018-12-29T13:58:03.955Z,0
2018-12-29T13:59:04.812Z,0
2018-12-29T14:00:04.006Z,0
2018-12-29T14:01:03.154Z,0
2018-12-29T14:02:02.884Z,0
2018-12-29T14:03:03.284Z,0
2018-12-29T14:04:03.235Z,0
2018-12-29T14:05:03.730Z,0